Time;durP1;ratioP1;P1;durP2;ratioP2;P2;SDS_P1;SDS_P2;PMS_P1;PMS_P2;Temp;Humidity;BMP_temperature;BMP_pressure;BME280_temperature;BME280_humidity;BME280_pressure;Samples;Min_cycle;Max_cycle;Signal;HPM_P1;HPM_P2
2024/02/17 00:02:02;;;;;;;7.03;5.70;;;14.30;99.90;;;;;;4995359;28;20437;-69
2024/02/17 00:04:28;;;;;;;8.53;6.03;;;14.20;99.90;;;;;;4995633;28;20542;-69
2024/02/17 00:06:54;;;;;;;6.17;4.97;;;14.20;99.90;;;;;;4995157;28;20457;-68
2024/02/17 00:09:19;;;;;;;7.03;4.40;;;14.20;99.90;;;;;;4995154;28;20171;-69
2024/02/17 00:11:45;;;;;;;5.90;4.10;;;14.20;99.90;;;;;;4994644;28;20503;-69
2024/02/17 00:14:11;;;;;;;6.77;4.20;;;14.30;99.90;;;;;;4995405;28;20167;-68
2024/02/17 00:16:37;;;;;;;4.93;3.83;;;14.30;99.90;;;;;;4994858;28;20690;-68
2024/02/17 00:19:04;;;;;;;4.73;4.30;;;14.40;99.90;;;;;;4994952;28;20168;-69
2024/02/17 00:21:29;;;;;;;5.60;4.40;;;14.40;99.90;;;;;;4995239;28;20988;-69
2024/02/17 00:23:55;;;;;;;3.87;3.40;;;14.50;99.90;;;;;;4995196;28;20506;-68
2024/02/17 00:26:20;;;;;;;4.03;3.53;;;14.50;99.90;;;;;;4994846;28;20208;-69
2024/02/17 00:28:46;;;;;;;3.73;3.33;;;14.50;99.90;;;;;;4995466;28;20248;-68
2024/02/17 00:31:11;;;;;;;7.17;4.33;;;14.60;99.90;;;;;;4995211;28;20171;-69
2024/02/17 00:33:37;;;;;;;3.60;3.30;;;14.60;99.90;;;;;;4994976;28;20181;-68
2024/02/17 00:36:04;;;;;;;3.37;3.07;;;14.50;99.90;;;;;;4994850;28;20246;-69
2024/02/17 00:38:30;;;;;;;4.93;3.50;;;14.50;99.90;;;;;;4995078;28;20741;-69
2024/02/17 00:40:56;;;;;;;4.73;3.83;;;14.60;99.90;;;;;;4994887;28;20483;-69
2024/02/17 00:43:22;;;;;;;3.53;3.23;;;14.60;99.90;;;;;;4994601;28;20219;-68
2024/02/17 00:45:48;;;;;;;3.57;3.23;;;14.60;99.90;;;;;;4993276;28;20461;-69
2024/02/17 00:48:15;;;;;;;4.20;3.10;;;14.60;99.90;;;;;;4993574;28;20450;-69
2024/02/17 00:50:41;;;;;;;5.33;3.70;;;14.60;99.90;;;;;;4994547;28;20416;-69
2024/02/17 00:53:07;;;;;;;5.10;3.70;;;14.60;99.90;;;;;;4994725;28;20956;-69
2024/02/17 00:55:33;;;;;;;4.23;3.83;;;14.60;99.90;;;;;;4994441;28;20400;-69
2024/02/17 00:58:01;;;;;;;5.10;4.23;;;14.60;99.90;;;;;;4994441;28;20178;-69
2024/02/17 01:00:27;;;;;;;5.37;4.33;;;14.50;99.90;;;;;;4994563;28;20548;-69
2024/02/17 01:02:52;;;;;;;4.87;3.80;;;14.60;99.90;;;;;;4994939;28;20502;-69
2024/02/17 01:05:18;;;;;;;3.33;3.00;;;14.60;99.90;;;;;;4994374;28;20241;-69
2024/02/17 01:07:44;;;;;;;4.93;4.20;;;14.60;99.90;;;;;;4994899;28;20189;-69
2024/02/17 01:10:09;;;;;;;4.20;3.80;;;14.50;99.90;;;;;;4994449;28;20168;-69
2024/02/17 01:12:35;;;;;;;3.40;3.10;;;14.60;99.90;;;;;;4994313;28;20222;-69
2024/02/17 01:15:01;;;;;;;5.33;3.33;;;14.60;99.90;;;;;;4994548;28;20216;-69
2024/02/17 01:17:27;;;;;;;3.80;3.40;;;14.50;99.90;;;;;;4994551;28;20211;-69
2024/02/17 01:19:52;;;;;;;6.20;4.47;;;14.60;99.90;;;;;;4994924;28;20217;-69
2024/02/17 01:22:18;;;;;;;5.23;4.13;;;14.60;99.90;;;;;;4993892;28;20441;-69
2024/02/17 01:24:43;;;;;;;5.00;3.43;;;14.60;99.90;;;;;;4994091;28;20254;-69
2024/02/17 01:27:09;;;;;;;4.23;3.50;;;14.60;99.90;;;;;;4994435;28;20206;-69
2024/02/17 01:29:35;;;;;;;4.57;4.07;;;14.50;99.90;;;;;;4994499;28;20221;-69
2024/02/17 01:32:02;;;;;;;3.73;3.43;;;14.50;99.90;;;;;;4994217;28;20176;-69
2024/02/17 01:34:27;;;;;;;3.77;3.47;;;14.40;99.90;;;;;;4994967;28;20918;-70
2024/02/17 01:36:53;;;;;;;4.13;3.70;;;14.40;99.90;;;;;;4995351;28;20433;-70
2024/02/17 01:39:19;;;;;;;5.70;4.60;;;14.50;99.90;;;;;;4994663;28;20562;-69
2024/02/17 01:41:45;;;;;;;4.57;4.17;;;14.40;99.90;;;;;;4993951;28;20211;-69
2024/02/17 01:44:11;;;;;;;4.90;4.20;;;14.50;99.90;;;;;;4993917;28;20964;-69
2024/02/17 01:46:37;;;;;;;3.90;3.50;;;14.50;99.90;;;;;;4993693;28;20206;-69
2024/02/17 01:49:03;;;;;;;4.77;4.30;;;14.60;99.90;;;;;;4993649;28;20222;-69
2024/02/17 01:51:30;;;;;;;4.57;4.17;;;14.50;99.90;;;;;;4992507;28;20416;-68
2024/02/17 01:53:56;;;;;;;4.10;3.70;;;14.40;99.90;;;;;;4993904;28;20573;-68
2024/02/17 01:56:24;;;;;;;5.00;4.50;;;14.40;99.90;;;;;;4993869;28;20433;-68
2024/02/17 01:58:51;;;;;;;8.93;5.00;;;14.40;99.90;;;;;;4993725;28;20521;-69
2024/02/17 02:01:17;;;;;;;4.37;4.00;;;14.40;99.90;;;;;;4993693;28;20914;-69
2024/02/17 02:03:42;;;;;;;4.47;4.07;;;14.40;99.90;;;;;;4993527;28;20419;-68
2024/02/17 02:06:08;;;;;;;8.60;5.67;;;14.30;99.90;;;;;;4993620;28;20755;-68
2024/02/17 02:08:33;;;;;;;5.50;4.07;;;14.40;99.90;;;;;;4993563;28;20172;-68
2024/02/17 02:11:00;;;;;;;4.10;3.57;;;14.40;99.90;;;;;;4993498;28;20178;-68
2024/02/17 02:13:27;;;;;;;4.40;3.27;;;14.40;99.90;;;;;;4994209;28;20170;-70
2024/02/17 02:15:52;;;;;;;3.80;3.40;;;14.40;99.90;;;;;;4993385;28;20462;-68
2024/02/17 02:18:18;;;;;;;4.07;3.70;;;14.30;99.90;;;;;;4993762;28;20465;-68
2024/02/17 02:20:44;;;;;;;5.40;3.73;;;14.30;99.90;;;;;;4993404;28;20175;-68
2024/02/17 02:23:10;;;;;;;3.60;3.20;;;14.20;99.90;;;;;;4993654;28;20412;-68
2024/02/17 02:25:39;;;;;;;2.63;2.20;;;14.30;99.90;;;;;;4993183;28;20220;-68
2024/02/17 02:28:05;;;;;;;5.70;3.40;;;14.00;99.90;;;;;;4993765;28;20168;-70
2024/02/17 02:30:30;;;;;;;5.50;3.27;;;13.60;99.90;;;;;;4993640;28;20994;-68
2024/02/17 02:32:59;;;;;;;3.30;3.00;;;13.30;99.90;;;;;;4993397;28;20190;-68
2024/02/17 02:35:24;;;;;;;3.73;3.33;;;13.10;99.90;;;;;;4996145;28;20168;-70
2024/02/17 02:37:50;;;;;;;4.00;3.60;;;13.10;99.90;;;;;;4995640;28;20444;-70
2024/02/17 02:40:16;;;;;;;4.93;4.33;;;13.00;99.90;;;;;;4996847;28;20192;-70
2024/02/17 02:42:41;;;;;;;5.43;4.20;;;13.00;99.90;;;;;;4997113;28;20161;-70
2024/02/17 02:45:07;;;;;;;5.20;4.70;;;13.10;99.90;;;;;;4996977;28;20222;-69
2024/02/17 02:47:33;;;;;;;6.67;5.70;;;13.10;99.90;;;;;;4996713;28;20215;-69
2024/02/17 02:49:59;;;;;;;7.33;5.53;;;13.00;99.90;;;;;;4996954;28;20405;-69
2024/02/17 02:52:25;;;;;;;6.07;5.47;;;13.00;99.90;;;;;;4996725;28;20240;-69
2024/02/17 02:54:51;;;;;;;7.53;6.70;;;12.80;99.90;;;;;;4996884;28;20493;-68
2024/02/17 02:57:16;;;;;;;8.40;6.10;;;12.80;99.90;;;;;;4996875;28;20239;-68
2024/02/17 02:59:42;;;;;;;8.33;7.53;;;12.80;99.90;;;;;;4996472;28;20163;-68
2024/02/17 03:02:08;;;;;;;8.60;7.70;;;12.90;99.90;;;;;;4996600;28;20176;-68
2024/02/17 03:04:33;;;;;;;9.27;8.37;;;12.70;99.90;;;;;;4995250;28;20181;-69
2024/02/17 03:06:59;;;;;;;11.30;10.10;;;12.70;99.90;;;;;;4994956;28;20204;-69
2024/02/17 03:09:25;;;;;;;13.27;10.20;;;12.60;99.90;;;;;;4996468;28;20176;-68
2024/02/17 03:11:50;;;;;;;9.60;8.70;;;12.50;99.90;;;;;;4996390;28;20176;-69
2024/02/17 03:14:16;;;;;;;13.30;11.40;;;12.50;99.90;;;;;;4996380;28;20176;-69
2024/02/17 03:16:42;;;;;;;12.90;10.73;;;12.60;99.90;;;;;;4996350;28;20600;-69
2024/02/17 03:19:08;;;;;;;10.43;9.10;;;12.70;99.90;;;;;;4996476;28;20207;-69
2024/02/17 03:21:34;;;;;;;10.70;9.60;;;12.70;99.90;;;;;;4996895;28;20450;-69
2024/02/17 03:23:59;;;;;;;12.30;10.97;;;12.70;99.90;;;;;;4996262;28;20256;-69
2024/02/17 03:26:25;;;;;;;11.20;10.10;;;12.60;99.90;;;;;;4996362;28;21010;-68
2024/02/17 03:28:51;;;;;;;15.53;13.10;;;12.60;99.90;;;;;;4996028;28;20226;-69
2024/02/17 03:31:16;;;;;;;12.70;11.37;;;12.70;99.90;;;;;;4996144;28;20719;-69
2024/02/17 03:33:42;;;;;;;12.57;11.20;;;12.70;99.90;;;;;;4995041;28;20168;-67
2024/02/17 03:36:07;;;;;;;13.77;11.90;;;12.70;99.90;;;;;;4996183;28;20239;-69
2024/02/17 03:38:33;;;;;;;14.03;11.77;;;12.70;99.90;;;;;;4995849;28;20207;-69
2024/02/17 03:40:59;;;;;;;13.97;11.70;;;12.70;99.90;;;;;;4995761;28;20176;-69
2024/02/17 03:43:25;;;;;;;15.93;12.83;;;12.60;99.90;;;;;;4995933;28;20175;-69
2024/02/17 03:45:51;;;;;;;20.00;15.70;;;12.70;99.90;;;;;;4993799;28;20203;-68
2024/02/17 03:48:17;;;;;;;13.07;11.57;;;12.70;99.90;;;;;;4994704;28;20423;-69
2024/02/17 03:50:42;;;;;;;17.57;15.00;;;12.60;99.90;;;;;;4996407;28;20169;-70
2024/02/17 03:53:08;;;;;;;15.07;13.50;;;12.60;99.90;;;;;;4995717;28;20169;-69
2024/02/17 03:55:34;;;;;;;13.90;12.50;;;12.70;99.90;;;;;;4995643;28;20171;-69
2024/02/17 03:57:59;;;;;;;15.83;12.73;;;12.60;99.90;;;;;;4994446;28;20177;-69
2024/02/17 04:00:25;;;;;;;17.80;15.90;;;12.50;99.90;;;;;;4995689;28;20172;-69
2024/02/17 04:02:51;;;;;;;17.70;13.57;;;12.40;99.90;;;;;;4995716;28;20306;-68
2024/02/17 04:05:16;;;;;;;17.53;14.23;;;12.60;99.90;;;;;;4995512;28;20176;-69
2024/02/17 04:07:42;;;;;;;16.37;14.07;;;12.50;99.90;;;;;;4995393;28;20595;-70
2024/02/17 04:10:09;;;;;;;16.13;13.93;;;12.70;99.90;;;;;;4994432;28;20182;-69
2024/02/17 04:12:39;;;;;;;16.90;14.37;;;12.80;99.90;;;;;;4995997;28;20847;-69
2024/02/17 04:15:06;;;;;;;13.87;12.37;;;12.60;99.90;;;;;;4995931;28;20464;-69
2024/02/17 04:17:32;;;;;;;16.60;14.43;;;12.80;99.90;;;;;;4995355;28;20454;-69
2024/02/17 04:19:57;;;;;;;14.70;12.17;;;13.00;99.90;;;;;;4995283;28;20411;-69
2024/02/17 04:22:25;;;;;;;12.93;11.20;;;13.10;99.90;;;;;;4995356;28;20411;-69
2024/02/17 04:24:51;;;;;;;15.43;12.27;;;13.10;99.90;;;;;;4996057;28;20727;-69
2024/02/17 04:27:16;;;;;;;19.17;14.70;;;13.10;99.90;;;;;;4995287;28;20566;-69
2024/02/17 04:29:42;;;;;;;13.50;11.87;;;13.20;99.90;;;;;;4995598;28;20170;-68
2024/02/17 04:32:08;;;;;;;15.13;12.60;;;13.10;99.90;;;;;;4995354;28;20203;-69
2024/02/17 04:34:34;;;;;;;12.87;11.33;;;13.20;99.90;;;;;;4995472;28;20564;-69
2024/02/17 04:37:01;;;;;;;14.13;12.43;;;13.30;99.90;;;;;;4995170;28;20428;-70
2024/02/17 04:39:27;;;;;;;11.53;10.30;;;13.30;99.90;;;;;;4995340;28;20696;-69
2024/02/17 04:41:54;;;;;;;14.17;12.27;;;13.30;99.90;;;;;;4995571;28;20419;-69
2024/02/17 04:44:20;;;;;;;14.00;12.50;;;13.40;99.90;;;;;;4996979;28;20515;-69
2024/02/17 04:46:46;;;;;;;17.30;13.00;;;13.40;99.90;;;;;;4996206;28;20512;-69
2024/02/17 04:49:12;;;;;;;14.40;12.03;;;13.40;99.90;;;;;;4995177;28;20415;-69
2024/02/17 04:51:38;;;;;;;11.90;10.63;;;13.40;99.90;;;;;;4995235;28;20741;-70
2024/02/17 04:54:03;;;;;;;11.40;9.80;;;13.20;99.90;;;;;;4994721;28;20255;-68
2024/02/17 04:56:29;;;;;;;11.87;10.50;;;12.80;99.90;;;;;;4994836;28;20731;-69
2024/02/17 04:58:55;;;;;;;11.83;10.27;;;12.60;99.90;;;;;;4994406;28;20180;-69
2024/02/17 05:01:22;;;;;;;14.77;11.80;;;12.50;99.90;;;;;;4995046;28;20166;-69
2024/02/17 05:03:48;;;;;;;12.90;10.83;;;12.50;99.90;;;;;;4994679;28;20168;-69
2024/02/17 05:06:16;;;;;;;13.67;11.30;;;12.40;99.90;;;;;;4994597;28;20537;-68
2024/02/17 05:08:43;;;;;;;14.43;11.87;;;12.40;99.90;;;;;;4994343;28;20410;-69
2024/02/17 05:11:09;;;;;;;15.10;12.57;;;12.50;99.90;;;;;;4995553;28;20493;-70
2024/02/17 05:13:35;;;;;;;15.03;12.43;;;12.50;99.90;;;;;;4994451;28;20458;-69
2024/02/17 05:16:04;;;;;;;17.27;14.17;;;12.40;99.90;;;;;;4994283;28;20453;-70
2024/02/17 05:18:30;;;;;;;20.70;15.90;;;12.40;99.90;;;;;;4994188;28;20194;-69
2024/02/17 05:20:55;;;;;;;20.30;15.63;;;12.50;99.90;;;;;;4992835;28;20462;-69
2024/02/17 05:23:21;;;;;;;16.33;12.60;;;12.60;99.90;;;;;;4994461;28;20178;-69
2024/02/17 05:25:48;;;;;;;17.60;14.23;;;12.60;99.90;;;;;;4994370;28;20281;-69
2024/02/17 05:28:14;;;;;;;16.70;13.93;;;12.40;99.90;;;;;;4994572;28;20256;-69
2024/02/17 05:30:40;;;;;;;14.77;13.13;;;12.40;99.90;;;;;;4994068;28;20428;-69
2024/02/17 05:33:06;;;;;;;20.07;15.70;;;12.50;99.90;;;;;;4994167;28;20912;-69
2024/02/17 05:35:31;;;;;;;22.37;17.07;;;12.30;99.90;;;;;;4994229;28;20163;-69
2024/02/17 05:37:57;;;;;;;18.00;14.67;;;12.20;99.90;;;;;;4994211;28;20191;-70
2024/02/17 05:40:23;;;;;;;23.87;18.53;;;12.30;99.90;;;;;;4992774;28;20192;-69
2024/02/17 05:42:49;;;;;;;25.47;17.17;;;12.40;99.90;;;;;;4993853;28;20163;-70
2024/02/17 05:45:14;;;;;;;17.60;14.27;;;12.50;99.90;;;;;;4994114;28;20901;-69
2024/02/17 05:47:40;;;;;;;18.47;15.63;;;12.40;99.90;;;;;;4994202;28;20200;-69
2024/02/17 05:50:06;;;;;;;21.13;15.80;;;12.30;99.90;;;;;;4993842;28;20174;-69
2024/02/17 05:52:32;;;;;;;20.30;16.03;;;12.40;99.90;;;;;;4993731;28;20168;-69
2024/02/17 05:54:58;;;;;;;16.90;14.87;;;12.40;99.90;;;;;;4992499;28;20435;-69
2024/02/17 05:57:23;;;;;;;22.37;18.30;;;12.30;99.90;;;;;;4993622;28;20466;-68
2024/02/17 05:59:49;;;;;;;28.53;21.83;;;12.30;99.90;;;;;;4993679;28;20170;-69
2024/02/17 06:02:15;;;;;;;28.80;20.80;;;12.40;99.90;;;;;;4994096;28;20172;-69
2024/02/17 06:04:41;;;;;;;25.40;19.43;;;12.30;99.90;;;;;;4993724;28;20165;-69
2024/02/17 06:07:06;;;;;;;26.73;19.07;;;12.40;99.90;;;;;;4993632;28;20454;-69
2024/02/17 06:09:32;;;;;;;16.93;15.07;;;12.50;99.90;;;;;;4995042;28;20165;-69
2024/02/17 06:11:58;;;;;;;20.30;15.60;;;12.50;99.90;;;;;;4997363;28;20273;-68
2024/02/17 06:14:23;;;;;;;20.83;16.67;;;12.30;99.90;;;;;;4996467;28;20176;-69
2024/02/17 06:16:50;;;;;;;17.90;15.33;;;12.20;99.90;;;;;;4997298;28;20210;-69
2024/02/17 06:22:00;;;;;;;24.03;19.40;;;11.90;99.90;;;;;;4997282;28;20429;-69
2024/02/17 06:24:26;;;;;;;22.13;17.83;;;12.00;99.90;;;;;;4997382;28;20821;-69
2024/02/17 06:26:51;;;;;;;19.20;15.13;;;12.00;99.90;;;;;;4997610;28;20286;-70
2024/02/17 06:29:17;;;;;;;21.47;17.30;;;12.00;99.90;;;;;;4996196;28;20171;-70
2024/02/17 06:31:43;;;;;;;24.40;19.07;;;11.90;99.90;;;;;;4997188;28;20837;-70
2024/02/17 06:34:08;;;;;;;25.40;19.10;;;11.90;99.90;;;;;;4997200;28;20167;-71
2024/02/17 06:36:34;;;;;;;24.10;18.63;;;12.00;99.90;;;;;;4997098;28;20193;-70
2024/02/17 06:38:59;;;;;;;23.50;18.10;;;11.90;99.90;;;;;;4996985;28;20175;-70
2024/02/17 06:41:26;;;;;;;20.30;16.10;;;12.10;99.90;;;;;;4997474;28;20194;-70
2024/02/17 06:43:52;;;;;;;22.67;16.83;;;12.20;99.90;;;;;;4996959;28;20165;-70
2024/02/17 06:46:18;;;;;;;27.30;19.53;;;12.20;99.90;;;;;;4996859;28;20450;-70
2024/02/17 06:48:43;;;;;;;23.73;18.80;;;12.10;99.90;;;;;;4997020;28;20239;-70
2024/02/17 06:51:10;;;;;;;22.50;18.23;;;12.20;99.90;;;;;;4995604;28;20555;-70
2024/02/17 06:53:36;;;;;;;20.60;16.33;;;12.20;99.90;;;;;;4996824;28;20163;-70
2024/02/17 06:56:02;;;;;;;23.73;19.20;;;12.20;99.90;;;;;;4995580;28;20434;-70
2024/02/17 06:58:27;;;;;;;20.00;16.23;;;12.20;99.90;;;;;;4997053;28;20176;-70
2024/02/17 07:00:53;;;;;;;22.50;17.10;;;12.30;99.90;;;;;;4996734;28;20169;-70
2024/02/17 07:03:18;;;;;;;20.90;16.50;;;12.20;99.90;;;;;;4996944;28;20172;-70
2024/02/17 07:05:44;;;;;;;20.80;16.53;;;12.20;99.90;;;;;;4996635;28;20263;-70
2024/02/17 07:08:11;;;;;;;23.07;17.60;;;12.20;99.90;;;;;;4996762;28;20169;-70
2024/02/17 07:10:37;;;;;;;22.47;17.00;;;12.00;99.90;;;;;;4997428;28;20163;-70
2024/02/17 07:13:04;;;;;;;22.13;17.20;;;11.70;99.90;;;;;;4995550;28;20408;-70
2024/02/17 07:15:30;;;;;;;21.07;17.20;;;11.60;99.90;;;;;;4996855;28;20440;-70
2024/02/17 07:18:00;;;;;;;20.77;16.07;;;11.50;99.90;;;;;;4996347;28;20449;-70
2024/02/17 07:20:30;;;;;;;21.93;17.20;;;11.70;99.90;;;;;;4996045;28;20901;-70
2024/02/17 07:22:57;;;;;;;26.73;19.47;;;11.80;99.90;;;;;;4996324;28;20431;-70
2024/02/17 07:25:24;;;;;;;23.27;16.67;;;11.90;99.90;;;;;;4996419;28;20455;-70
2024/02/17 07:27:50;;;;;;;23.17;17.40;;;11.80;99.90;;;;;;4996198;28;20428;-70
2024/02/17 07:30:17;;;;;;;24.70;17.87;;;11.90;99.90;;;;;;4996555;28;20405;-70
2024/02/17 07:32:42;;;;;;;22.90;17.03;;;11.80;99.90;;;;;;4996251;28;20406;-70
2024/02/17 07:35:08;;;;;;;20.90;16.23;;;11.60;99.90;;;;;;4996679;28;20494;-69
2024/02/17 07:37:33;;;;;;;25.43;18.37;;;11.70;99.90;;;;;;4996196;28;20243;-70
2024/02/17 07:40:00;;;;;;;22.97;18.10;;;11.90;99.90;;;;;;4995076;28;20185;-71
2024/02/17 07:42:28;;;;;;;21.50;17.23;;;12.10;99.90;;;;;;4996403;28;20161;-68
2024/02/17 07:44:54;;;;;;;24.77;18.40;;;12.10;99.90;;;;;;4996308;28;20407;-70
2024/02/17 07:47:20;;;;;;;24.43;17.67;;;12.00;99.90;;;;;;4995792;28;20452;-70
2024/02/17 07:49:46;;;;;;;20.30;15.10;;;11.90;99.90;;;;;;4996443;28;20417;-70
2024/02/17 07:52:12;;;;;;;20.30;14.20;;;12.00;99.90;;;;;;4997240;28;20178;-70
2024/02/17 07:54:37;;;;;;;21.83;16.73;;;12.00;99.90;;;;;;4997183;28;20178;-70
2024/02/17 07:57:03;;;;;;;23.60;17.60;;;12.10;99.90;;;;;;4995790;28;20531;-70
2024/02/17 07:59:28;;;;;;;23.90;17.37;;;12.30;99.90;;;;;;4995814;28;20168;-70
2024/02/17 08:01:54;;;;;;;19.63;16.57;;;12.30;99.90;;;;;;4996127;28;20167;-70
2024/02/17 08:04:19;;;;;;;18.40;15.67;;;12.40;99.90;;;;;;4995792;28;20174;-70
2024/02/17 08:06:45;;;;;;;22.00;16.50;;;12.40;99.90;;;;;;4995555;28;20286;-70
2024/02/17 08:09:11;;;;;;;21.43;16.57;;;12.30;99.90;;;;;;4994501;28;20168;-70
2024/02/17 08:11:36;;;;;;;19.33;15.63;;;12.50;99.90;;;;;;4995867;28;20199;-70
2024/02/17 08:14:04;;;;;;;19.57;15.40;;;12.60;99.90;;;;;;4994947;28;20206;-70
2024/02/17 08:16:29;;;;;;;17.40;15.43;;;12.60;99.90;;;;;;4995022;28;20215;-70
2024/02/17 08:18:55;;;;;;;16.60;14.20;;;12.50;99.90;;;;;;4995881;28;20418;-70
2024/02/17 08:21:20;;;;;;;17.53;14.80;;;12.50;99.90;;;;;;4995181;28;20171;-70
2024/02/17 08:23:46;;;;;;;16.73;13.30;;;12.40;99.90;;;;;;4995356;28;20173;-70
2024/02/17 08:26:12;;;;;;;19.47;15.13;;;12.60;99.90;;;;;;4995132;28;20225;-70
2024/02/17 08:28:38;;;;;;;22.50;15.30;;;12.50;99.90;;;;;;4995078;28;20174;-70
2024/02/17 08:31:04;;;;;;;21.10;16.20;;;12.60;99.90;;;;;;4995047;28;20435;-70
2024/02/17 08:33:29;;;;;;;22.90;16.93;;;12.70;99.90;;;;;;4994947;28;20493;-70
2024/02/17 08:35:55;;;;;;;19.30;15.90;;;12.70;99.90;;;;;;4994702;28;20275;-70
2024/02/17 08:38:20;;;;;;;30.70;21.07;;;12.80;99.90;;;;;;4994886;28;20178;-70
2024/02/17 08:40:46;;;;;;;22.63;16.87;;;12.60;99.90;;;;;;4995036;28;20177;-69
2024/02/17 08:43:12;;;;;;;18.93;16.23;;;12.40;99.90;;;;;;4994751;28;20167;-70
2024/02/17 08:45:37;;;;;;;22.07;17.43;;;12.30;99.90;;;;;;4994841;28;20571;-70
2024/02/17 08:48:04;;;;;;;18.10;15.03;;;12.30;99.90;;;;;;4994811;28;20196;-70
2024/02/17 08:50:29;;;;;;;20.93;16.03;;;12.30;99.90;;;;;;4994780;28;20179;-71
2024/02/17 08:52:55;;;;;;;20.90;17.10;;;12.40;99.90;;;;;;4994911;28;20411;-69
2024/02/17 08:55:20;;;;;;;20.77;16.80;;;12.40;99.90;;;;;;4994451;28;20538;-70
2024/02/17 08:57:46;;;;;;;18.57;16.50;;;12.50;99.90;;;;;;4994475;28;20187;-70
2024/02/17 09:00:12;;;;;;;17.30;15.00;;;12.40;99.90;;;;;;4993301;28;20596;-70
2024/02/17 09:02:38;;;;;;;18.23;15.57;;;12.60;99.90;;;;;;4994493;28;20578;-70
2024/02/17 09:05:06;;;;;;;20.13;16.47;;;12.90;99.90;;;;;;4994335;28;20408;-70
2024/02/17 09:07:32;;;;;;;20.00;15.87;;;12.90;99.90;;;;;;4993083;28;20200;-68
2024/02/17 09:09:58;;;;;;;16.40;14.40;;;13.10;99.90;;;;;;4994651;28;20411;-68
2024/02/17 09:12:24;;;;;;;21.10;17.93;;;13.20;99.90;;;;;;4994562;28;20794;-67
2024/02/17 09:14:49;;;;;;;19.20;16.07;;;13.10;99.90;;;;;;4994200;28;20212;-68
2024/02/17 09:17:16;;;;;;;19.40;15.60;;;13.10;99.90;;;;;;4994207;28;20211;-69
2024/02/17 09:19:42;;;;;;;17.50;15.20;;;13.10;99.90;;;;;;4992922;28;20538;-69
2024/02/17 09:22:08;;;;;;;17.93;14.20;;;13.20;99.90;;;;;;4994063;28;20420;-68
2024/02/17 09:24:33;;;;;;;19.37;14.90;;;13.30;99.90;;;;;;4994214;28;20415;-69
2024/02/17 09:27:03;;;;;;;16.87;14.83;;;13.60;99.90;;;;;;4994419;28;20475;-69
2024/02/17 09:29:29;;;;;;;18.00;13.57;;;13.40;99.90;;;;;;4992843;28;20161;-69
2024/02/17 09:31:54;;;;;;;16.00;13.90;;;13.50;99.90;;;;;;4993924;28;20455;-68
2024/02/17 09:34:20;;;;;;;17.70;13.70;;;13.40;99.90;;;;;;4994414;28;20643;-69
2024/02/17 09:36:47;;;;;;;18.70;13.83;;;13.20;99.90;;;;;;4994143;28;20272;-69
2024/02/17 09:39:13;;;;;;;18.40;14.13;;;13.20;99.90;;;;;;4993891;28;20548;-69
2024/02/17 09:41:39;;;;;;;15.80;14.07;;;13.40;99.90;;;;;;4993822;28;20408;-68
2024/02/17 09:44:06;;;;;;;15.43;13.30;;;13.60;99.90;;;;;;4993396;28;20412;-69
2024/02/17 09:46:31;;;;;;;16.03;13.67;;;13.90;99.90;;;;;;4993845;28;20452;-69
2024/02/17 09:49:00;;;;;;;14.53;12.20;;;13.90;99.90;;;;;;4994049;28;20566;-69
2024/02/17 09:51:26;;;;;;;12.83;10.97;;;13.90;99.90;;;;;;4994064;28;20174;-69
2024/02/17 09:53:54;;;;;;;15.00;13.40;;;13.80;99.90;;;;;;4994063;28;20402;-68
2024/02/17 09:56:21;;;;;;;14.83;12.43;;;13.60;99.90;;;;;;4994108;28;20194;-69
2024/02/17 09:58:46;;;;;;;16.23;13.40;;;13.80;99.90;;;;;;4993753;28;20951;-68
2024/02/17 10:01:12;;;;;;;17.20;11.87;;;13.80;99.90;;;;;;4993660;28;20416;-68
2024/02/17 10:03:38;;;;;;;13.07;11.67;;;13.90;99.90;;;;;;4993849;28;20175;-68
2024/02/17 10:06:14;;;;;;;13.30;10.83;;;13.80;99.90;;;;;;4993934;28;20454;-69
2024/02/17 10:08:41;;;;;;;13.13;11.20;;;13.80;99.90;;;;;;4992462;28;20654;-70
2024/02/17 10:11:11;;;;;;;12.73;10.83;;;13.60;99.90;;;;;;4993627;28;20925;-69
2024/02/17 10:13:41;;;;;;;13.57;10.20;;;13.30;99.90;;;;;;4994056;28;20406;-69
2024/02/17 10:16:16;;;;;;;15.40;12.20;;;13.20;99.90;;;;;;4992257;28;20439;-69
2024/02/17 10:18:43;;;;;;;14.23;10.20;;;12.90;99.90;;;;;;4992313;28;20844;-68
2024/02/17 10:21:09;;;;;;;14.10;11.57;;;12.70;99.90;;;;;;4992433;28;20454;-70
2024/02/17 10:23:35;;;;;;;11.73;10.50;;;12.80;99.90;;;;;;4993346;28;20417;-70
2024/02/17 10:26:02;;;;;;;12.77;10.53;;;12.80;99.90;;;;;;4993873;28;20860;-70
2024/02/17 10:28:29;;;;;;;13.77;11.20;;;12.90;99.90;;;;;;4992204;28;20214;-70
2024/02/17 10:30:58;;;;;;;10.83;9.80;;;13.10;99.90;;;;;;4993744;28;20431;-69
2024/02/17 10:33:27;;;;;;;11.30;10.20;;;13.30;99.90;;;;;;4993611;28;20399;-70
2024/02/17 10:35:54;;;;;;;13.30;10.23;;;13.30;99.90;;;;;;4993736;28;20443;-70
2024/02/17 10:38:20;;;;;;;12.20;11.00;;;13.40;99.90;;;;;;4993417;28;20451;-70
2024/02/17 10:40:46;;;;;;;11.23;10.20;;;13.50;99.90;;;;;;4994288;28;20413;-70
2024/02/17 10:43:11;;;;;;;12.90;10.47;;;13.50;99.90;;;;;;4993665;28;20418;-70
2024/02/17 10:45:37;;;;;;;10.07;9.00;;;13.50;99.90;;;;;;4993302;28;20304;-70
2024/02/17 10:48:06;;;;;;;10.37;8.63;;;13.70;99.90;;;;;;4993675;28;20195;-70
2024/02/17 10:50:35;;;;;;;10.17;8.47;;;13.70;99.90;;;;;;4992199;28;20171;-70
2024/02/17 10:53:04;;;;;;;9.70;8.27;;;13.80;99.90;;;;;;4993515;28;20433;-70
2024/02/17 10:55:36;;;;;;;9.40;8.23;;;13.80;99.90;;;;;;4994744;28;20781;-70
2024/02/17 10:58:16;;;;;;;12.37;9.60;;;13.90;99.90;;;;;;4997281;28;20552;-69
2024/02/17 11:00:45;;;;;;;10.27;9.23;;;13.90;99.90;;;;;;4996955;28;20442;-68
2024/02/17 11:03:13;;;;;;;10.00;8.87;;;13.90;99.90;;;;;;4997650;28;20415;-69
2024/02/17 11:05:42;;;;;;;9.93;8.53;;;14.10;99.90;;;;;;4998544;28;20770;-70
2024/02/17 11:08:09;;;;;;;14.40;7.50;;;14.30;99.90;;;;;;4997160;28;20411;-69
2024/02/17 11:10:34;;;;;;;12.60;8.40;;;14.50;99.90;;;;;;4997180;28;20451;-69
2024/02/17 11:13:01;;;;;;;9.87;8.93;;;14.60;99.90;;;;;;4995363;28;20431;-68
2024/02/17 11:15:27;;;;;;;9.07;8.17;;;14.70;99.90;;;;;;4996448;28;20669;-69
2024/02/17 11:17:57;;;;;;;9.70;8.73;;;14.90;99.90;;;;;;5010633;23;20895;-73
2024/02/17 11:20:24;;;;;;;7.50;6.80;;;15.10;99.90;;;;;;4996047;28;21019;-73
2024/02/17 11:22:50;;;;;;;8.57;7.77;;;15.40;99.90;;;;;;4995879;28;20483;-73
2024/02/17 11:25:35;;;;;;;8.37;7.33;;;15.50;99.90;;;;;;4995932;28;20400;-73
2024/02/17 11:28:04;;;;;;;9.63;8.67;;;15.40;99.90;;;;;;4995851;28;20196;-71
2024/02/17 11:30:46;;;;;;;9.13;7.80;;;15.10;99.90;;;;;;4996097;28;20443;-72
2024/02/17 11:33:15;;;;;;;9.77;8.77;;;14.50;99.90;;;;;;4994572;28;20503;-73
2024/02/17 11:35:45;;;;;;;10.37;9.30;;;14.40;99.90;;;;;;4995913;28;20438;-72
2024/02/17 11:38:14;;;;;;;12.17;9.17;;;14.50;99.90;;;;;;4995464;28;20423;-72
2024/02/17 11:40:40;;;;;;;10.00;9.00;;;14.60;99.90;;;;;;4995420;28;20471;-73
2024/02/17 11:43:05;;;;;;;9.00;8.10;;;14.50;99.90;;;;;;4995676;28;20423;-72
2024/02/17 11:45:31;;;;;;;10.30;8.57;;;15.00;99.90;;;;;;4996169;28;20172;-73
2024/02/17 11:47:57;;;;;;;10.97;9.43;;;16.00;99.90;;;;;;4995541;28;20189;-73
2024/02/17 11:50:22;;;;;;;12.30;9.30;;;17.30;99.90;;;;;;4995451;28;20176;-72
2024/02/17 11:52:50;;;;;;;9.93;8.57;;;17.20;99.90;;;;;;4995585;28;20247;-72
2024/02/17 11:55:16;;;;;;;6.73;6.03;;;16.80;99.90;;;;;;4995288;28;20252;-72
2024/02/17 11:57:42;;;;;;;7.10;6.40;;;16.20;99.90;;;;;;4995185;28;20439;-72
2024/02/17 12:00:11;;;;;;;6.97;5.80;;;15.90;99.90;;;;;;4995206;28;20408;-73
2024/02/17 12:02:40;;;;;;;6.40;5.47;;;15.30;99.90;;;;;;4995715;28;20771;-72
2024/02/17 12:05:06;;;;;;;8.57;6.43;;;15.20;99.90;;;;;;4995001;28;20458;-72
2024/02/17 12:07:33;;;;;;;9.33;6.60;;;15.30;99.90;;;;;;4994353;28;20896;-74
2024/02/17 12:09:58;;;;;;;7.73;5.40;;;17.10;99.90;;;;;;4994993;28;20251;-72
2024/02/17 12:12:24;;;;;;;6.93;6.23;;;17.10;99.90;;;;;;4994995;28;20440;-72
2024/02/17 12:14:53;;;;;;;8.00;6.83;;;18.40;99.90;;;;;;4995235;28;20180;-72
2024/02/17 12:17:19;;;;;;;5.90;5.40;;;17.90;99.90;;;;;;4994951;28;20212;-72
2024/02/17 12:19:45;;;;;;;7.07;5.30;;;18.00;99.90;;;;;;4995054;28;20458;-72
2024/02/17 12:22:12;;;;;;;7.43;5.20;;;19.80;99.90;;;;;;4994803;28;20420;-72
2024/02/17 12:24:39;;;;;;;4.20;3.80;;;20.60;99.60;;;;;;4995049;28;20493;-73
2024/02/17 12:27:06;;;;;;;5.23;4.53;;;20.00;98.60;;;;;;4994594;28;20478;-73
2024/02/17 12:29:31;;;;;;;6.47;5.87;;;19.60;98.90;;;;;;4993513;28;20558;-72
2024/02/17 12:31:57;;;;;;;6.27;4.40;;;19.00;99.90;;;;;;4995099;28;20465;-71
2024/02/17 12:34:31;;;;;;;3.50;3.20;;;18.50;98.90;;;;;;4994562;28;20179;-73